createdAt,value
2022-12-04T00:01:20.024Z,2.05
2022-12-04T00:03:46.984Z,2.50
2022-12-04T00:06:18.812Z,2.20
2022-12-04T00:08:47.408Z,2.58
2022-12-04T00:11:16.478Z,2.30
2022-12-04T00:13:43.715Z,2.63
2022-12-04T00:16:13.752Z,2.42
2022-12-04T00:18:40.383Z,2.33
2022-12-04T00:21:10.826Z,2.55
2022-12-04T00:23:38.162Z,2.70
2022-12-04T00:26:11.701Z,2.30
2022-12-04T00:28:38.826Z,2.45
2022-12-04T00:31:27.254Z,2.67
2022-12-04T00:33:54.026Z,2.30
2022-12-04T00:36:23.413Z,1.90
2022-12-04T00:38:50.342Z,2.58
2022-12-04T00:41:19.552Z,2.58
2022-12-04T00:43:46.285Z,1.77
2022-12-04T00:46:13.182Z,2.25
2022-12-04T00:48:40.059Z,1.73
2022-12-04T00:51:10.162Z,2.40
2022-12-04T00:53:37.442Z,2.30
2022-12-04T00:56:09.361Z,1.85
2022-12-04T00:58:36.285Z,2.10
2022-12-04T01:01:08.028Z,2.13
2022-12-04T01:03:35.567Z,1.95
2022-12-04T01:06:03.370Z,2.05
2022-12-04T01:08:30.042Z,2.00
2022-12-04T01:10:57.458Z,2.10
2022-12-04T01:13:24.951Z,1.90
2022-12-04T01:15:52.534Z,2.15
2022-12-04T01:18:19.161Z,2.15
2022-12-04T01:20:48.624Z,2.00
2022-12-04T01:23:15.325Z,1.83
2022-12-04T01:25:58.628Z,2.20
2022-12-04T01:28:25.667Z,2.08
2022-12-04T01:31:10.553Z,1.70
2022-12-04T01:33:38.056Z,2.20
2022-12-04T01:36:07.284Z,1.90
2022-12-04T01:38:35.224Z,1.45
2022-12-04T01:41:02.247Z,2.03
2022-12-04T01:43:32.433Z,1.98
2022-12-04T01:46:00.520Z,1.83
2022-12-04T01:48:32.067Z,1.90
2022-12-04T01:51:05.479Z,1.80
2022-12-04T01:53:33.743Z,1.75
2022-12-04T01:56:00.680Z,1.52
2022-12-04T01:58:32.088Z,2.20
2022-12-04T02:01:08.454Z,1.43
2022-12-04T02:03:37.182Z,1.40
2022-12-04T02:06:04.456Z,2.10
2022-12-04T02:08:31.523Z,2.08
2022-12-04T02:11:09.631Z,1.90
2022-12-04T02:13:46.052Z,1.92
2022-12-04T02:16:23.834Z,1.58
2022-12-04T02:19:08.645Z,1.52
2022-12-04T02:21:38.019Z,1.70
2022-12-04T02:24:18.416Z,1.80
2022-12-04T02:26:53.749Z,1.60
2022-12-04T02:29:23.261Z,1.60
2022-12-04T02:32:09.730Z,1.63
2022-12-04T02:34:43.263Z,1.55
2022-12-04T02:37:16.037Z,1.40
2022-12-04T02:39:55.073Z,1.77
2022-12-04T02:42:30.829Z,1.23
2022-12-04T02:45:01.633Z,1.73
2022-12-04T02:47:28.295Z,1.90
2022-12-04T02:50:04.504Z,1.50
2022-12-04T02:52:41.949Z,1.75
2022-12-04T02:55:14.962Z,1.40
2022-12-04T02:57:45.565Z,1.85
2022-12-04T03:00:12.989Z,1.73
2022-12-04T03:03:00.084Z,1.50
2022-12-04T03:05:33.492Z,1.65
2022-12-04T03:08:04.671Z,1.60
2022-12-04T03:10:35.748Z,1.90
2022-12-04T03:13:10.165Z,1.70
2022-12-04T03:16:26.336Z,1.80
2022-12-04T03:19:07.245Z,1.50
2022-12-04T03:21:38.352Z,1.42
2022-12-04T03:24:18.631Z,1.60
2022-12-04T03:26:48.043Z,1.80
2022-12-04T03:29:23.973Z,1.45
2022-12-04T03:32:03.921Z,1.60
2022-12-04T03:34:51.118Z,1.58
2022-12-04T03:37:21.714Z,1.67
2022-12-04T03:39:57.883Z,1.50
2022-12-04T03:42:28.124Z,1.30
2022-12-04T03:45:01.893Z,1.98
2022-12-04T03:47:38.615Z,1.70
2022-12-04T03:50:14.164Z,1.63
2022-12-04T03:55:37.095Z,1.40
2022-12-04T03:58:08.336Z,1.25
2022-12-04T04:00:38.170Z,1.27
2022-12-04T04:03:10.594Z,1.40
2022-12-04T04:05:41.593Z,1.63
2022-12-04T04:08:27.949Z,1.58
2022-12-04T04:11:09.126Z,1.20
2022-12-04T04:14:03.145Z,1.40
2022-12-04T04:16:51.030Z,1.40
2022-12-04T04:19:38.293Z,1.27
2022-12-04T04:22:37.788Z,1.35
2022-12-04T04:25:08.093Z,1.60
2022-12-04T04:27:34.817Z,1.45
2022-12-04T04:30:01.550Z,1.50
2022-12-04T04:32:38.917Z,1.40
2022-12-04T04:35:24.509Z,1.50
2022-12-04T04:37:56.885Z,1.75
2022-12-04T04:40:36.206Z,1.50
2022-12-04T04:43:14.872Z,1.45
2022-12-04T04:45:45.916Z,1.38
2022-12-04T04:48:16.102Z,1.30
2022-12-04T04:50:43.514Z,1.52
2022-12-04T04:53:15.685Z,1.45
2022-12-04T04:55:43.761Z,1.35
2022-12-04T04:58:16.834Z,1.42
2022-12-04T05:00:55.084Z,1.38
2022-12-04T05:03:21.823Z,1.30
2022-12-04T05:05:49.090Z,1.33
2022-12-04T05:08:15.766Z,1.35
2022-12-04T05:10:42.581Z,1.52
2022-12-04T05:13:11.988Z,1.40
2022-12-04T05:15:38.759Z,1.30
2022-12-04T05:18:05.553Z,1.30
2022-12-04T05:20:32.569Z,1.50
2022-12-04T05:22:59.262Z,1.67
2022-12-04T05:25:26.537Z,1.38
2022-12-04T05:27:53.413Z,1.55
2022-12-04T05:30:20.433Z,1.10
2022-12-04T05:32:47.098Z,1.48
2022-12-04T05:35:13.849Z,1.20
2022-12-04T05:37:40.554Z,1.95
2022-12-04T05:40:08.434Z,1.40
2022-12-04T05:42:35.314Z,1.48
2022-12-04T05:45:01.948Z,1.40
2022-12-04T05:47:30.912Z,1.15
2022-12-04T05:49:58.375Z,1.30
2022-12-04T05:52:25.131Z,1.35
2022-12-04T05:54:51.850Z,1.08
2022-12-04T05:57:18.406Z,1.40
2022-12-04T05:59:44.998Z,1.55
2022-12-04T06:02:11.681Z,1.10
2022-12-04T06:04:38.487Z,2.00
2022-12-04T06:07:05.347Z,1.25
2022-12-04T06:09:33.687Z,1.25
2022-12-04T06:12:00.311Z,1.38
2022-12-04T06:14:26.958Z,1.20
2022-12-04T06:16:53.723Z,1.40
2022-12-04T06:19:21.899Z,1.30
2022-12-04T06:21:51.809Z,1.23
2022-12-04T06:24:22.231Z,1.17
2022-12-04T06:27:18.969Z,1.20
2022-12-04T06:29:36.760Z,2.10
2022-12-04T06:32:03.510Z,1.50
2022-12-04T06:34:30.314Z,1.10
2022-12-04T06:36:56.919Z,1.17
2022-12-04T06:39:24.535Z,1.15
2022-12-04T06:41:51.165Z,1.20
2022-12-04T06:44:17.863Z,1.30
2022-12-04T06:46:47.569Z,1.70
2022-12-04T06:49:14.781Z,1.35
2022-12-04T06:51:41.487Z,1.38
2022-12-04T06:54:09.678Z,1.40
2022-12-04T06:56:36.788Z,1.40
2022-12-04T06:59:04.436Z,1.50
2022-12-04T07:01:33.469Z,1.50
2022-12-04T07:04:01.997Z,1.48
2022-12-04T07:06:30.811Z,1.35
2022-12-04T07:09:02.747Z,1.77
2022-12-04T07:11:30.242Z,1.50
2022-12-04T07:13:57.261Z,1.60
2022-12-04T07:16:25.687Z,1.95
2022-12-04T07:18:56.427Z,1.40
2022-12-04T07:21:29.226Z,1.90
2022-12-04T07:24:01.073Z,1.58
2022-12-04T07:26:30.442Z,1.95
2022-12-04T07:28:58.218Z,1.75
2022-12-04T07:31:26.853Z,1.60
2022-12-04T07:33:55.098Z,1.65
2022-12-04T07:36:22.849Z,1.70
2022-12-04T07:38:49.970Z,1.88
2022-12-04T07:41:17.904Z,1.83
2022-12-04T07:43:45.261Z,1.85
2022-12-04T07:46:15.197Z,1.85
2022-12-04T07:48:42.847Z,1.63
2022-12-04T07:51:11.769Z,1.80
2022-12-04T07:53:38.725Z,2.13
2022-12-04T07:56:07.409Z,1.83
2022-12-04T07:58:34.500Z,2.10
2022-12-04T08:01:07.162Z,1.60
2022-12-04T08:03:33.849Z,2.00
2022-12-04T08:06:02.292Z,2.17
2022-12-04T08:08:29.048Z,2.15
2022-12-04T08:10:55.998Z,2.17
2022-12-04T08:13:22.607Z,1.85
2022-12-04T08:15:49.165Z,2.03
2022-12-04T08:18:15.783Z,2.20
2022-12-04T08:20:42.378Z,2.28
2022-12-04T08:23:08.984Z,1.70
2022-12-04T08:25:39.711Z,2.15
2022-12-04T08:28:06.937Z,1.73
2022-12-04T08:30:35.668Z,2.08
2022-12-04T08:33:03.005Z,181.48
2022-12-04T08:35:29.668Z,145.95
2022-12-04T08:37:56.294Z,108.93
2022-12-04T08:40:23.855Z,66.85
2022-12-04T08:42:50.651Z,76.22
2022-12-04T08:45:17.577Z,72.88
2022-12-04T08:47:49.219Z,62.20
2022-12-04T08:50:18.898Z,57.03
2022-12-04T08:52:46.046Z,52.10
2022-12-04T08:55:12.769Z,46.15
2022-12-04T08:57:39.331Z,42.28
2022-12-04T09:00:06.994Z,39.30
2022-12-04T09:02:33.683Z,35.95
2022-12-04T09:05:00.393Z,31.33
2022-12-04T09:07:27.460Z,29.48
2022-12-04T09:09:54.129Z,26.02
2022-12-04T09:12:20.682Z,23.17
2022-12-04T09:14:47.350Z,22.45
2022-12-04T09:17:13.932Z,19.08
2022-12-04T09:19:41.157Z,18.27
2022-12-04T09:22:07.764Z,16.10
2022-12-04T09:24:34.402Z,13.10
2022-12-04T09:27:01.380Z,7.85
2022-12-04T09:29:32.249Z,5.90
2022-12-04T09:31:58.860Z,5.30
2022-12-04T09:34:25.838Z,4.65
2022-12-04T09:36:52.835Z,4.10
2022-12-04T09:39:19.402Z,3.65
2022-12-04T09:42:05.333Z,3.63
2022-12-04T09:44:45.964Z,3.78
2022-12-04T09:47:22.861Z,3.60
2022-12-04T09:50:01.046Z,3.40
2022-12-04T09:53:01.417Z,3.35
2022-12-04T09:55:33.604Z,3.13
2022-12-04T09:58:02.720Z,3.13
2022-12-04T10:00:30.215Z,3.17
2022-12-04T10:03:01.837Z,2.90
2022-12-04T10:05:50.181Z,3.03
2022-12-04T10:08:40.658Z,3.40
2022-12-04T10:11:22.353Z,3.28
2022-12-04T10:14:00.898Z,2.83
2022-12-04T10:16:46.599Z,2.97
2022-12-04T10:22:07.704Z,2.90
2022-12-04T10:24:52.667Z,2.63
2022-12-04T10:27:28.538Z,2.45
2022-12-04T10:29:59.192Z,2.58
2022-12-04T10:32:29.680Z,2.60
2022-12-04T10:35:00.955Z,2.30
2022-12-04T10:37:27.829Z,2.90
2022-12-04T10:39:58.649Z,2.45
2022-12-04T10:42:31.524Z,3.08
2022-12-04T10:44:58.350Z,2.50
2022-12-04T10:47:25.526Z,2.53
2022-12-04T10:50:02.354Z,2.63
2022-12-04T10:52:29.193Z,2.95
2022-12-04T10:55:00.105Z,2.60
2022-12-04T10:57:37.807Z,2.92
2022-12-04T11:00:24.788Z,3.17
2022-12-04T11:02:52.788Z,2.30
2022-12-04T11:05:31.637Z,3.47
2022-12-04T11:08:00.282Z,3.50
2022-12-04T11:10:38.800Z,3.22
2022-12-04T11:13:14.932Z,3.20
2022-12-04T11:15:55.433Z,3.53
2022-12-04T11:18:27.239Z,3.50
2022-12-04T11:20:58.751Z,3.33
2022-12-04T11:23:26.968Z,3.35
2022-12-04T11:26:02.110Z,3.30
2022-12-04T11:28:47.884Z,3.92
2022-12-04T11:31:20.193Z,3.75
2022-12-04T11:33:53.511Z,3.35
2022-12-04T11:36:35.018Z,3.63
2022-12-04T11:39:15.414Z,3.40
2022-12-04T11:41:42.401Z,3.38
2022-12-04T11:44:25.366Z,3.20
2022-12-04T11:46:58.244Z,3.50
2022-12-04T11:49:26.601Z,3.45
2022-12-04T11:52:01.956Z,3.38
2022-12-04T11:54:32.632Z,3.28
2022-12-04T11:57:08.687Z,3.67
2022-12-04T12:00:09.447Z,3.58
2022-12-04T12:02:50.252Z,3.45
2022-12-04T12:05:53.682Z,3.45
2022-12-04T12:08:23.172Z,3.10
2022-12-04T12:10:55.694Z,3.25
2022-12-04T12:13:37.040Z,2.97
2022-12-04T12:16:18.390Z,3.58
2022-12-04T12:19:22.713Z,3.35
2022-12-04T12:22:19.126Z,3.13
2022-12-04T12:25:13.090Z,2.92
2022-12-04T12:27:53.511Z,2.83
2022-12-04T12:30:21.820Z,3.15
2022-12-04T12:33:20.316Z,3.00
2022-12-04T12:36:01.576Z,3.00
2022-12-04T12:38:34.779Z,3.30
2022-12-04T12:41:07.569Z,2.90
2022-12-04T12:43:37.300Z,3.70
2022-12-04T12:46:10.474Z,3.00
2022-12-04T12:49:06.832Z,3.45
2022-12-04T12:51:37.873Z,3.17
2022-12-04T12:54:41.390Z,2.67
2022-12-04T12:57:17.808Z,2.90
2022-12-04T13:00:28.902Z,2.85
2022-12-04T13:03:00.428Z,2.75
2022-12-04T13:05:41.266Z,2.88
2022-12-04T13:08:46.389Z,3.30
2022-12-04T13:11:18.535Z,2.97
2022-12-04T13:13:48.574Z,3.13
2022-12-04T13:16:21.115Z,4.10
2022-12-04T13:18:53.642Z,3.53
2022-12-04T13:21:30.103Z,3.55
2022-12-04T13:24:05.692Z,3.05
2022-12-04T13:26:52.629Z,3.15
2022-12-04T13:29:53.593Z,3.25
2022-12-04T13:32:49.627Z,2.97
2022-12-04T13:35:24.550Z,2.97
2022-12-04T13:38:08.901Z,2.92
2022-12-04T13:40:41.463Z,3.45
2022-12-04T13:43:33.554Z,2.97
2022-12-04T13:46:03.710Z,3.13
2022-12-04T13:48:37.690Z,2.90
2022-12-04T13:51:08.242Z,2.78
2022-12-04T13:53:37.664Z,2.90
2022-12-04T13:56:09.490Z,3.03
2022-12-04T13:58:38.082Z,3.15
2022-12-04T14:01:06.370Z,2.72
2022-12-04T14:03:35.876Z,3.47
2022-12-04T14:06:05.439Z,2.67
2022-12-04T14:08:39.096Z,2.72
2022-12-04T14:11:12.839Z,2.50
2022-12-04T14:13:42.374Z,2.63
2022-12-04T14:16:38.552Z,2.30
2022-12-04T14:19:06.626Z,2.83
2022-12-04T14:21:44.641Z,2.72
2022-12-04T14:24:29.718Z,2.65
2022-12-04T14:27:14.059Z,2.83
2022-12-04T14:29:53.709Z,2.33
2022-12-04T14:32:27.666Z,2.05
2022-12-04T14:34:55.052Z,2.85
2022-12-04T14:37:36.769Z,2.35
2022-12-04T14:40:07.631Z,2.28
2022-12-04T14:42:38.840Z,2.42
2022-12-04T14:45:28.749Z,2.78
2022-12-04T14:48:18.735Z,1.92
2022-12-04T14:51:12.766Z,2.22
2022-12-04T14:54:16.776Z,2.15
2022-12-04T14:57:04.350Z,2.35
2022-12-04T14:59:51.264Z,2.10
2022-12-04T15:02:20.404Z,2.50
2022-12-04T15:04:49.009Z,2.17
2022-12-04T15:07:20.933Z,2.35
2022-12-04T15:10:14.508Z,2.30
2022-12-04T15:13:01.359Z,2.28
2022-12-04T15:15:29.716Z,2.45
2022-12-04T15:17:58.179Z,2.20
2022-12-04T15:20:25.247Z,2.55
2022-12-04T15:22:53.948Z,2.42
2022-12-04T15:29:34.881Z,2.75
2022-12-04T15:32:05.859Z,2.55
2022-12-04T15:34:44.054Z,2.50
2022-12-04T15:37:20.533Z,3.00
2022-12-04T15:39:49.863Z,2.63
2022-12-04T15:42:21.776Z,2.40
2022-12-04T15:44:55.102Z,3.38
2022-12-04T15:47:23.986Z,3.38
2022-12-04T15:49:50.789Z,3.28
2022-12-04T15:52:19.848Z,3.28
2022-12-04T15:54:56.526Z,3.10
2022-12-04T15:57:35.756Z,3.17
2022-12-04T16:00:05.269Z,3.10
2022-12-04T16:02:34.349Z,3.05
2022-12-04T16:05:22.798Z,3.45
2022-12-04T16:07:53.025Z,2.95
2022-12-04T16:10:29.828Z,2.90
2022-12-04T16:12:59.068Z,3.00
2022-12-04T16:15:31.913Z,3.22
2022-12-04T16:17:59.786Z,3.10
2022-12-04T16:20:27.489Z,2.65
2022-12-04T16:22:54.771Z,2.85
2022-12-04T16:25:21.454Z,2.58
2022-12-04T16:27:59.137Z,2.75
2022-12-04T16:30:36.060Z,2.33
2022-12-04T16:33:02.840Z,4.15
2022-12-04T16:35:31.424Z,27.17
2022-12-04T16:37:59.047Z,18.70
2022-12-04T16:40:26.118Z,14.48
2022-12-04T16:42:52.970Z,13.95
2022-12-04T16:45:26.461Z,12.93
2022-12-04T16:47:53.420Z,11.50
2022-12-04T16:50:20.307Z,10.43
2022-12-04T16:52:47.265Z,9.73
2022-12-04T16:55:31.572Z,9.00
2022-12-04T16:57:58.706Z,8.23
2022-12-04T17:00:25.398Z,7.60
2022-12-04T17:02:53.090Z,7.57
2022-12-04T17:05:25.460Z,7.78
2022-12-04T17:07:52.584Z,6.93
2022-12-04T17:10:23.738Z,6.65
2022-12-04T17:12:54.666Z,5.70
2022-12-04T17:15:22.503Z,5.68
2022-12-04T17:17:49.132Z,5.65
2022-12-04T17:20:17.764Z,4.57
2022-12-04T17:22:44.670Z,4.68
2022-12-04T17:25:11.409Z,4.63
2022-12-04T17:27:38.630Z,4.65
2022-12-04T17:30:06.408Z,4.28
2022-12-04T17:32:34.835Z,4.35
2022-12-04T17:35:02.494Z,3.70
2022-12-04T17:37:31.887Z,4.10
2022-12-04T17:39:58.832Z,4.00
2022-12-04T17:42:25.717Z,3.95
2022-12-04T17:44:52.273Z,3.83
2022-12-04T17:47:20.593Z,3.80
2022-12-04T17:49:47.146Z,3.95
2022-12-04T17:52:13.713Z,3.70
2022-12-04T17:54:40.312Z,3.30
2022-12-04T17:57:07.354Z,3.40
2022-12-04T17:59:33.924Z,3.42
2022-12-04T18:02:00.509Z,3.08
2022-12-04T18:04:29.002Z,3.35
2022-12-04T18:06:56.420Z,3.33
2022-12-04T18:09:23.389Z,3.13
2022-12-04T18:11:50.046Z,3.25
2022-12-04T18:14:18.965Z,2.95
2022-12-04T18:16:48.184Z,3.30
2022-12-04T18:19:15.057Z,2.72
2022-12-04T18:21:42.162Z,2.85
2022-12-04T18:24:10.225Z,3.22
2022-12-04T18:26:39.473Z,3.00
2022-12-04T18:29:07.149Z,3.10
2022-12-04T18:31:34.036Z,2.63
2022-12-04T18:34:00.689Z,2.92
2022-12-04T18:36:31.852Z,3.10
2022-12-04T18:39:04.449Z,3.05
2022-12-04T18:41:31.491Z,2.45
2022-12-04T18:43:58.537Z,3.33
2022-12-04T18:46:26.099Z,3.30
2022-12-04T18:48:54.452Z,2.60
2022-12-04T18:51:39.306Z,2.63
2022-12-04T18:54:12.049Z,2.78
2022-12-04T18:56:38.964Z,2.80
2022-12-04T18:59:12.603Z,2.88
2022-12-04T19:01:40.224Z,2.50
2022-12-04T19:04:09.069Z,2.47
2022-12-04T19:06:47.312Z,2.60
2022-12-04T19:09:16.944Z,2.40
2022-12-04T19:11:44.138Z,2.13
2022-12-04T19:14:21.027Z,2.47
2022-12-04T19:16:50.304Z,2.50
2022-12-04T19:19:17.061Z,2.70
2022-12-04T19:21:44.352Z,2.08
2022-12-04T19:24:11.194Z,2.50
2022-12-04T19:26:38.148Z,2.50
2022-12-04T19:29:05.536Z,2.38
2022-12-04T19:31:34.191Z,2.47
2022-12-04T19:34:01.177Z,2.13
2022-12-04T19:36:30.331Z,2.80
2022-12-04T19:38:58.150Z,2.17
2022-12-04T19:41:28.149Z,2.17
2022-12-04T19:43:56.939Z,2.25
2022-12-04T19:46:26.903Z,2.45
2022-12-04T19:48:56.953Z,2.38
2022-12-04T19:51:24.513Z,2.20
2022-12-04T19:53:51.856Z,1.77
2022-12-04T19:56:24.470Z,2.20
2022-12-04T19:58:53.039Z,2.60
2022-12-04T20:01:21.305Z,2.78
2022-12-04T20:03:47.915Z,2.20
2022-12-04T20:06:17.950Z,2.70
2022-12-04T20:08:45.239Z,3.42
2022-12-04T20:11:17.797Z,2.92
2022-12-04T20:13:46.067Z,2.63
2022-12-04T20:16:16.224Z,2.67
2022-12-04T20:18:43.394Z,2.63
2022-12-04T20:21:13.245Z,3.78
2022-12-04T20:23:44.313Z,2.72
2022-12-04T20:26:12.847Z,2.58
2022-12-04T20:28:40.125Z,3.15
2022-12-04T20:31:20.080Z,2.65
2022-12-04T20:33:48.425Z,2.40
2022-12-04T20:36:18.812Z,2.15
2022-12-04T20:38:45.958Z,2.47
2022-12-04T20:41:15.856Z,3.15
2022-12-04T20:43:46.869Z,2.90
2022-12-04T20:46:15.070Z,2.50
2022-12-04T20:48:48.121Z,2.70
2022-12-04T20:51:17.312Z,2.05
2022-12-04T20:53:44.744Z,2.40
2022-12-04T20:56:11.794Z,2.05
2022-12-04T20:58:39.007Z,2.42
2022-12-04T21:01:10.785Z,2.80
2022-12-04T21:03:40.310Z,2.33
2022-12-04T21:06:35.819Z,2.38
2022-12-04T21:09:05.910Z,1.95
2022-12-04T21:11:35.726Z,2.38
2022-12-04T21:14:24.805Z,2.08
2022-12-04T21:16:52.193Z,1.98
2022-12-04T21:19:20.480Z,2.40
2022-12-04T21:21:47.512Z,2.25
2022-12-04T21:24:15.929Z,2.25
2022-12-04T21:26:43.159Z,2.15
2022-12-04T21:29:09.989Z,2.15
2022-12-04T21:31:39.358Z,1.88
2022-12-04T21:34:08.825Z,2.00
2022-12-04T21:36:35.942Z,2.00
2022-12-04T21:39:02.884Z,1.73
2022-12-04T21:41:47.825Z,2.08
2022-12-04T21:44:16.955Z,2.00
2022-12-04T21:46:44.301Z,2.00
2022-12-04T21:49:11.238Z,1.90
2022-12-04T21:51:56.865Z,2.20
2022-12-04T21:54:25.660Z,2.17
2022-12-04T21:56:52.550Z,2.08
2022-12-04T21:59:21.015Z,2.03
2022-12-04T22:01:47.633Z,2.03
2022-12-04T22:04:14.367Z,2.20
2022-12-04T22:06:40.961Z,2.42
2022-12-04T22:09:09.727Z,1.83
2022-12-04T22:11:36.845Z,2.15
2022-12-04T22:14:03.870Z,2.47
2022-12-04T22:16:32.842Z,2.38
2022-12-04T22:19:01.595Z,2.53
2022-12-04T22:21:29.596Z,2.20
2022-12-04T22:23:57.800Z,2.05
2022-12-04T22:26:24.784Z,2.58
2022-12-04T22:28:52.049Z,2.22
2022-12-04T22:31:21.000Z,2.00
2022-12-04T22:33:49.901Z,2.17
2022-12-04T22:36:19.224Z,2.00
2022-12-04T22:39:08.827Z,2.00
2022-12-04T22:41:32.661Z,2.20
2022-12-04T22:43:59.225Z,2.38
2022-12-04T22:46:26.992Z,1.98
2022-12-04T22:48:54.420Z,1.80
2022-12-04T22:51:23.819Z,1.80
2022-12-04T22:53:53.120Z,2.00
2022-12-04T22:56:27.903Z,1.67
2022-12-04T22:58:55.010Z,1.58
2022-12-04T23:01:24.477Z,1.55
2022-12-04T23:03:51.956Z,1.92
2022-12-04T23:06:20.999Z,1.40
2022-12-04T23:08:47.877Z,1.70
2022-12-04T23:11:18.943Z,2.35
2022-12-04T23:14:04.208Z,1.63
2022-12-04T23:16:33.158Z,1.48
2022-12-04T23:18:59.885Z,1.83
2022-12-04T23:21:27.472Z,1.55
2022-12-04T23:23:54.966Z,1.77
2022-12-04T23:26:24.732Z,1.90
2022-12-04T23:28:51.993Z,1.85
2022-12-04T23:31:19.005Z,1.80
2022-12-04T23:33:45.573Z,2.05
2022-12-04T23:36:13.007Z,1.70
2022-12-04T23:38:40.781Z,1.77
2022-12-04T23:41:11.298Z,1.92
2022-12-04T23:43:42.673Z,1.60
2022-12-04T23:46:11.696Z,1.27
2022-12-04T23:48:43.561Z,1.88
2022-12-04T23:51:11.757Z,1.48
2022-12-04T23:53:38.853Z,1.85
2022-12-04T23:56:18.667Z,1.50
2022-12-04T23:58:47.338Z,1.35
